Time;durP1;ratioP1;P1;durP2;ratioP2;P2;SDS_P1;SDS_P2;PMS_P1;PMS_P2;Temp;Humidity;BMP_temperature;BMP_pressure;BME280_temperature;BME280_humidity;BME280_pressure;Samples;Min_cycle;Max_cycle;Signal;HPM_P1;HPM_P2
2021/12/26 00:00:54;;;;;;;3.75;2.60;;;;;;;-2.36;79.73;100767.84;5115088;28;20028;-66
2021/12/26 00:03:22;;;;;;;6.47;2.90;;;;;;;-2.38;80.22;100771.16;5115265;28;20496;-66
2021/12/26 00:05:48;;;;;;;5.82;2.72;;;;;;;-2.41;79.85;100760.81;5115413;28;20034;-66
2021/12/26 00:08:13;;;;;;;4.55;2.92;;;;;;;-2.43;80.39;100759.91;5115373;28;20358;-65
2021/12/26 00:10:38;;;;;;;4.78;2.80;;;;;;;-2.43;80.37;100762.47;5115196;28;20031;-66
2021/12/26 00:13:04;;;;;;;5.72;2.88;;;;;;;-2.44;80.92;100763.28;5115532;28;20051;-66
2021/12/26 00:15:30;;;;;;;5.50;3.08;;;;;;;-2.40;80.01;100760.00;5115002;28;20392;-65
2021/12/26 00:17:55;;;;;;;4.93;2.72;;;;;;;-2.39;80.42;100765.19;5115463;28;20446;-65
2021/12/26 00:20:21;;;;;;;5.50;2.90;;;;;;;-2.58;80.94;100732.88;5115116;28;20046;-65
2021/12/26 00:22:48;;;;;;;5.20;2.95;;;;;;;-2.52;81.12;100748.47;5115182;28;20027;-65
2021/12/26 00:25:13;;;;;;;4.88;2.80;;;;;;;-2.54;81.16;100739.88;5115487;28;20110;-65
2021/12/26 00:27:39;;;;;;;3.97;2.85;;;;;;;-2.57;82.43;100747.44;5115140;28;20379;-65
2021/12/26 00:30:09;;;;;;;7.13;2.88;;;;;;;-2.57;82.27;100738.88;5115201;28;20378;-65
2021/12/26 00:32:34;;;;;;;6.38;2.80;;;;;;;-2.64;81.10;100737.78;5115409;28;20038;-65
2021/12/26 00:34:59;;;;;;;6.70;3.00;;;;;;;-2.67;81.83;100729.97;5115209;28;20347;-66
2021/12/26 00:37:24;;;;;;;5.45;2.70;;;;;;;-2.71;80.85;100725.56;5115198;28;20031;-66
2021/12/26 00:39:50;;;;;;;4.35;2.63;;;;;;;-2.79;81.86;100719.28;5114942;28;20431;-66
2021/12/26 00:42:16;;;;;;;6.15;3.40;;;;;;;-2.71;82.34;100732.34;5114656;28;20054;-66
2021/12/26 00:44:41;;;;;;;5.60;3.05;;;;;;;-2.83;82.68;100715.72;5115061;28;20031;-66
2021/12/26 00:47:10;;;;;;;7.72;3.35;;;;;;;-2.77;81.85;100734.72;5114778;28;20030;-64
2021/12/26 00:49:35;;;;;;;5.53;3.03;;;;;;;-2.78;81.67;100726.16;5115141;28;20036;-65
2021/12/26 00:52:01;;;;;;;5.75;3.20;;;;;;;-2.77;83.55;100727.88;5114808;28;20413;-64
2021/12/26 00:54:26;;;;;;;5.18;3.00;;;;;;;-2.77;83.16;100730.44;5114845;28;20055;-65
2021/12/26 00:56:51;;;;;;;5.53;3.10;;;;;;;-2.69;83.05;100740.97;5115671;28;20316;-66
2021/12/26 00:59:17;;;;;;;6.15;3.30;;;;;;;-2.64;82.55;100732.66;5117259;28;20023;-65
2021/12/26 01:01:42;;;;;;;5.05;3.22;;;;;;;-2.54;82.38;100734.75;5118850;28;20032;-66
2021/12/26 01:04:08;;;;;;;6.07;3.05;;;;;;;-2.43;82.02;100744.53;5118599;28;20055;-65
2021/12/26 01:06:33;;;;;;;4.65;2.97;;;;;;;-2.37;82.11;100748.16;5118655;28;20027;-65
2021/12/26 01:08:59;;;;;;;6.07;3.35;;;;;;;-2.37;82.46;100737.06;5118566;28;20040;-65
2021/12/26 01:11:37;;;;;;;7.25;3.35;;;;;;;-2.28;81.64;100747.66;5118192;28;20023;-64
2021/12/26 01:14:07;;;;;;;6.82;3.17;;;;;;;-2.25;80.66;100740.91;5118584;28;20039;-65
2021/12/26 01:16:33;;;;;;;6.63;3.00;;;;;;;-2.18;80.60;100750.59;5118617;28;20077;-65
2021/12/26 01:19:06;;;;;;;5.63;3.10;;;;;;;-2.16;81.21;100748.97;5118618;28;20423;-65
2021/12/26 01:21:32;;;;;;;6.70;3.60;;;;;;;-2.12;80.48;100737.13;5118240;28;20027;-65
2021/12/26 01:24:05;;;;;;;5.82;3.08;;;;;;;-2.04;80.90;100737.38;5118232;28;20042;-66
2021/12/26 01:26:30;;;;;;;4.72;3.17;;;;;;;-1.96;79.46;100736.84;5118344;28;20032;-65
2021/12/26 01:28:56;;;;;;;8.35;3.08;;;;;;;-2.13;80.81;100720.00;5118244;28;20342;-65
2021/12/26 01:31:22;;;;;;;4.78;3.17;;;;;;;-1.99;80.12;100730.75;5118021;28;20177;-66
2021/12/26 01:33:49;;;;;;;5.53;3.60;;;;;;;-1.95;79.86;100737.72;5118363;28;20358;-66
2021/12/26 01:36:15;;;;;;;5.85;3.45;;;;;;;-1.92;80.01;100723.31;5117927;28;20035;-66
2021/12/26 01:38:41;;;;;;;6.00;3.45;;;;;;;-1.89;79.57;100725.97;5118179;28;20080;-65
2021/12/26 01:41:08;;;;;;;5.88;3.60;;;;;;;-1.89;79.77;100732.78;5118091;28;20107;-65
2021/12/26 01:43:35;;;;;;;6.97;3.45;;;;;;;-1.91;79.97;100721.63;5118066;28;20042;-66
2021/12/26 01:46:00;;;;;;;5.75;3.40;;;;;;;-1.93;79.34;100723.28;5118099;28;20020;-66
2021/12/26 01:48:26;;;;;;;6.20;3.80;;;;;;;-1.91;79.57;100713.94;5117911;28;20092;-65
2021/12/26 01:50:52;;;;;;;6.80;3.55;;;;;;;-1.87;79.90;100720.91;5117662;28;20096;-65
2021/12/26 01:53:22;;;;;;;7.53;3.47;;;;;;;-1.83;80.11;100730.44;5117199;28;20491;-65
2021/12/26 01:55:47;;;;;;;5.97;3.63;;;;;;;-1.87;79.69;100724.34;5117538;28;20114;-65
2021/12/26 01:58:23;;;;;;;7.18;3.67;;;;;;;-1.84;80.62;100727.00;5117293;28;20027;-65
2021/12/26 02:00:56;;;;;;;7.75;3.53;;;;;;;-1.82;79.78;100729.63;5117884;28;20035;-65
2021/12/26 02:03:21;;;;;;;7.57;3.70;;;;;;;-1.87;79.29;100731.16;5117584;28;20332;-66
2021/12/26 02:05:46;;;;;;;6.75;3.58;;;;;;;-1.80;79.78;100717.72;5117544;28;20039;-65
2021/12/26 02:08:12;;;;;;;7.38;4.13;;;;;;;-1.81;79.57;100716.84;5117465;28;20024;-65
2021/12/26 02:10:38;;;;;;;7.03;3.65;;;;;;;-1.77;79.88;100718.72;5117350;28;20032;-65
2021/12/26 02:13:04;;;;;;;6.43;3.60;;;;;;;-1.72;80.16;100716.28;5117284;28;20055;-65
2021/12/26 02:15:29;;;;;;;6.88;3.78;;;;;;;-1.69;79.26;100715.53;5117508;28;20028;-65
2021/12/26 02:17:55;;;;;;;6.90;3.92;;;;;;;-1.66;79.97;100720.75;5117290;28;20030;-66
2021/12/26 02:20:36;;;;;;;6.50;3.55;;;;;;;-1.65;79.90;100717.38;5116964;28;20090;-65
2021/12/26 02:23:10;;;;;;;6.97;3.92;;;;;;;-1.66;80.41;100713.06;5116939;28;20423;-65
2021/12/26 02:28:11;;;;;;;6.88;3.80;;;;;;;-1.60;79.09;100719.28;5117348;28;20342;-65
2021/12/26 02:30:36;;;;;;;8.05;4.30;;;;;;;-1.58;79.80;100717.66;5116833;28;20023;-65
2021/12/26 02:33:04;;;;;;;6.88;3.80;;;;;;;-1.63;79.60;100695.22;5098856;28;20118;-65
2021/12/26 02:35:29;;;;;;;7.18;3.65;;;;;;;-1.59;78.75;100703.06;5116810;28;20034;-66
2021/12/26 02:37:55;;;;;;;5.70;3.53;;;;;;;-1.68;79.40;100702.75;5117062;28;20039;-65
2021/12/26 02:40:20;;;;;;;6.93;3.90;;;;;;;-1.68;79.11;100696.75;5116727;28;20103;-65
2021/12/26 02:42:46;;;;;;;7.38;3.90;;;;;;;-1.70;78.33;100694.13;5116813;28;20034;-65
2021/12/26 02:45:13;;;;;;;9.32;4.15;;;;;;;-1.67;79.36;100691.66;5116518;28;20031;-66
2021/12/26 02:47:44;;;;;;;8.43;4.03;;;;;;;-1.64;79.27;100704.59;5116878;28;20035;-66
2021/12/26 02:50:17;;;;;;;6.93;3.87;;;;;;;-1.60;79.70;100703.00;5116569;28;20342;-65
2021/12/26 02:52:43;;;;;;;8.75;4.22;;;;;;;-1.59;79.08;100700.50;5116449;28;20040;-66
2021/12/26 02:55:10;;;;;;;8.95;4.03;;;;;;;-1.67;78.71;100693.34;5117220;28;20028;-66
2021/12/26 02:57:35;;;;;;;6.95;3.95;;;;;;;-1.63;78.97;100702.91;5115743;28;20446;-65
2021/12/26 03:00:06;;;;;;;8.25;3.83;;;;;;;-1.66;79.40;100700.25;5116306;28;20027;-66
2021/12/26 03:02:31;;;;;;;7.30;3.83;;;;;;;-1.64;78.69;100703.72;5116348;28;20027;-65
2021/12/26 03:04:57;;;;;;;8.50;4.38;;;;;;;-1.61;79.16;100699.56;5116323;28;20047;-66
2021/12/26 03:07:22;;;;;;;8.00;3.95;;;;;;;-1.64;79.01;100698.59;5116353;28;20439;-64
2021/12/26 03:09:49;;;;;;;7.63;4.25;;;;;;;-1.65;79.57;100707.13;5116230;28;20069;-65
2021/12/26 03:12:15;;;;;;;6.70;4.10;;;;;;;-1.65;78.56;100702.84;5115402;28;20051;-65
2021/12/26 03:14:40;;;;;;;7.68;4.07;;;;;;;-1.63;79.17;100700.34;5116250;28;20096;-65
2021/12/26 03:17:07;;;;;;;7.38;3.60;;;;;;;-1.67;79.52;100690.78;5115741;28;20413;-65
2021/12/26 03:19:34;;;;;;;7.88;4.30;;;;;;;-1.65;78.91;100694.28;5115890;28;20036;-65
2021/12/26 03:22:00;;;;;;;7.07;4.10;;;;;;;-1.68;79.50;100687.34;5115393;28;20035;-67
2021/12/26 03:24:25;;;;;;;7.85;4.15;;;;;;;-1.68;78.47;100681.34;5116094;28;20396;-66
2021/12/26 03:26:58;;;;;;;6.03;3.88;;;;;;;-1.72;79.12;100675.25;5115788;28;20055;-65
2021/12/26 03:29:23;;;;;;;;;;;;;;;-1.68;80.10;100666.84;5115928;28;20031;-66
2021/12/26 03:31:48;;;;;;;8.07;3.90;;;;;;;-1.90;78.69;100656.69;5115737;28;20216;-66
2021/12/26 03:34:13;;;;;;;7.63;4.18;;;;;;;-2.00;78.86;100668.34;5116101;28;20059;-65
2021/12/26 03:36:39;;;;;;;6.72;3.80;;;;;;;-2.10;78.91;100666.28;5115625;28;20423;-66
2021/12/26 03:39:05;;;;;;;7.00;3.67;;;;;;;-2.20;79.38;100669.34;5115337;28;20055;-64
2021/12/26 03:41:31;;;;;;;6.65;3.90;;;;;;;-2.21;79.49;100673.59;5115716;28;20039;-66
2021/12/26 03:43:56;;;;;;;8.02;4.20;;;;;;;-2.20;80.22;100677.03;5115549;28;20031;-64
2021/12/26 03:46:21;;;;;;;7.05;4.05;;;;;;;-2.27;79.75;100677.66;5115696;28;20350;-66
2021/12/26 03:48:46;;;;;;;7.88;4.00;;;;;;;-2.29;80.05;100679.28;5115707;28;20030;-66
2021/12/26 03:51:12;;;;;;;7.10;3.92;;;;;;;-2.34;79.61;100675.66;5115754;28;20400;-66
2021/12/26 03:53:37;;;;;;;7.45;3.97;;;;;;;-2.34;79.98;100696.16;5115831;28;20034;-65
2021/12/26 03:56:03;;;;;;;6.05;4.03;;;;;;;-2.39;80.54;100678.06;5115368;28;20063;-65
2021/12/26 03:58:28;;;;;;;6.85;4.20;;;;;;;-2.42;80.05;100671.97;5115348;28;20039;-66
2021/12/26 04:00:54;;;;;;;7.97;4.35;;;;;;;-2.47;80.50;100671.81;5115188;28;20128;-64
2021/12/26 04:03:19;;;;;;;7.00;4.32;;;;;;;-2.53;80.72;100679.25;5115495;28;20020;-65
2021/12/26 04:05:45;;;;;;;6.57;4.03;;;;;;;-2.56;81.23;100669.78;5115463;28;20031;-66
2021/12/26 04:08:10;;;;;;;7.80;4.10;;;;;;;-2.58;81.14;100675.66;5115363;28;20127;-67
2021/12/26 04:10:35;;;;;;;7.82;3.83;;;;;;;-2.57;81.63;100670.59;5115128;28;20123;-65
2021/12/26 04:13:01;;;;;;;6.65;4.03;;;;;;;-2.63;81.65;100669.50;5114986;28;20043;-64
2021/12/26 04:15:27;;;;;;;8.98;4.00;;;;;;;-2.67;82.37;100662.53;5115361;28;20522;-64
2021/12/26 04:17:54;;;;;;;6.72;4.00;;;;;;;-2.66;81.79;100666.81;5115438;28;20088;-65
2021/12/26 04:20:22;;;;;;;6.72;4.20;;;;;;;-2.77;81.63;100650.22;5115309;28;20031;-65
2021/12/26 04:22:48;;;;;;;7.57;4.13;;;;;;;-2.68;82.58;100663.34;5115107;28;20051;-65
2021/12/26 04:25:13;;;;;;;6.88;4.05;;;;;;;-2.66;82.31;100671.94;5115260;28;20070;-65
2021/12/26 04:27:39;;;;;;;7.63;4.43;;;;;;;-2.73;82.28;100663.16;5114832;28;20038;-65
2021/12/26 04:30:07;;;;;;;8.43;4.50;;;;;;;-2.78;81.99;100658.72;5115366;28;20119;-66
2021/12/26 04:32:32;;;;;;;7.95;3.88;;;;;;;-2.81;82.27;100672.25;5115024;28;20028;-65
2021/12/26 04:34:58;;;;;;;5.80;4.10;;;;;;;-2.83;81.91;100663.66;5118367;28;20034;-65
2021/12/26 04:37:23;;;;;;;5.72;3.80;;;;;;;-2.78;81.45;100671.50;5119576;28;20106;-66
2021/12/26 04:39:48;;;;;;;6.00;3.95;;;;;;;-2.85;83.16;100661.03;5119161;28;20036;-65
2021/12/26 04:42:14;;;;;;;7.25;4.13;;;;;;;-2.81;82.19;100662.03;5119145;28;20028;-65
2021/12/26 04:44:40;;;;;;;7.75;3.90;;;;;;;-2.93;81.98;100644.50;5119284;28;20355;-65
2021/12/26 04:47:05;;;;;;;7.78;4.13;;;;;;;-2.87;82.73;100657.53;5118920;28;20031;-66
2021/12/26 04:49:31;;;;;;;6.53;3.97;;;;;;;-2.89;81.98;100658.28;5119413;28;20032;-66
2021/12/26 04:51:56;;;;;;;6.70;4.13;;;;;;;-2.96;81.80;100657.22;5118998;28;20024;-67
2021/12/26 04:54:21;;;;;;;6.63;4.13;;;;;;;-2.97;82.39;100660.56;5118820;28;20042;-67
2021/12/26 04:56:47;;;;;;;6.78;3.97;;;;;;;-3.05;81.97;100640.63;5118851;28;20036;-66
2021/12/26 04:59:12;;;;;;;6.68;4.05;;;;;;;-3.01;82.44;100652.72;5118576;28;20062;-66
2021/12/26 05:01:39;;;;;;;7.25;4.32;;;;;;;-3.07;82.87;100655.03;5118792;28;20051;-64
2021/12/26 05:04:04;;;;;;;7.88;4.28;;;;;;;-3.10;82.90;100640.44;5118716;28;20042;-64
2021/12/26 05:06:30;;;;;;;6.63;4.13;;;;;;;-3.17;83.85;100630.78;5119213;28;20047;-65
2021/12/26 05:08:55;;;;;;;7.22;4.05;;;;;;;-3.08;83.14;100654.16;5118428;28;20063;-66
2021/12/26 05:11:21;;;;;;;9.13;4.20;;;;;;;-3.16;83.61;100648.78;5118268;28;20032;-64
2021/12/26 05:13:46;;;;;;;6.88;4.25;;;;;;;-3.10;84.02;100649.78;5118551;28;20042;-65
2021/12/26 05:16:11;;;;;;;6.68;3.95;;;;;;;-3.10;83.85;100648.09;5118486;28;20027;-66
2021/12/26 05:18:37;;;;;;;6.30;4.10;;;;;;;-3.12;84.04;100644.66;5118672;28;20043;-67
2021/12/26 05:21:03;;;;;;;8.40;4.30;;;;;;;-3.17;83.61;100638.47;5118468;28;20042;-65
2021/12/26 05:23:28;;;;;;;7.13;3.97;;;;;;;-3.18;83.84;100634.16;5118331;28;20089;-66
2021/12/26 05:25:53;;;;;;;8.25;4.43;;;;;;;-3.19;84.07;100646.09;5117774;28;20034;-65
2021/12/26 05:28:19;;;;;;;7.50;4.28;;;;;;;-3.24;84.55;100628.81;5118078;28;20028;-66
2021/12/26 05:30:44;;;;;;;6.35;4.07;;;;;;;-3.20;84.30;100641.78;5118182;28;20422;-65
2021/12/26 05:33:10;;;;;;;8.40;4.40;;;;;;;-3.26;83.36;100631.31;5118380;28;20023;-65
2021/12/26 05:35:35;;;;;;;7.70;4.25;;;;;;;-3.25;83.71;100627.06;5118285;28;20024;-64
2021/12/26 05:38:00;;;;;;;10.07;4.80;;;;;;;-3.26;84.63;100626.19;5118327;28;20024;-66
2021/12/26 05:40:26;;;;;;;6.57;4.50;;;;;;;-3.21;84.74;100634.91;5118201;28;20423;-65
2021/12/26 05:42:51;;;;;;;7.32;4.50;;;;;;;-3.22;83.64;100628.06;5117723;28;20035;-67
2021/12/26 05:45:17;;;;;;;8.45;4.68;;;;;;;-3.25;84.64;100621.94;5117211;28;20047;-65
2021/12/26 05:47:42;;;;;;;8.55;4.57;;;;;;;-3.28;84.45;100616.69;5117694;28;20077;-66
2021/12/26 05:50:10;;;;;;;6.68;4.25;;;;;;;-3.30;84.53;100629.47;5117352;28;20452;-66
2021/12/26 05:52:35;;;;;;;6.88;4.35;;;;;;;-3.34;84.89;100621.59;5117991;28;20114;-65
2021/12/26 05:55:01;;;;;;;7.88;4.80;;;;;;;-3.34;84.35;100617.38;5117835;28;20080;-66
2021/12/26 05:57:26;;;;;;;7.25;4.80;;;;;;;-3.32;84.63;100618.28;5117634;28;20102;-64
2021/12/26 05:59:51;;;;;;;6.20;4.25;;;;;;;-3.34;84.81;100614.81;5117958;28;20027;-64
2021/12/26 06:02:17;;;;;;;6.88;4.72;;;;;;;-3.33;85.12;100606.31;5117743;28;20419;-65
2021/12/26 06:04:43;;;;;;;8.77;4.25;;;;;;;-3.33;84.98;100603.75;5117481;28;20042;-65
2021/12/26 06:07:09;;;;;;;6.65;4.35;;;;;;;-3.40;84.74;100604.31;5117615;28;20039;-64
2021/12/26 06:09:34;;;;;;;8.80;4.45;;;;;;;-3.39;84.93;100612.88;5117416;28;20065;-64
2021/12/26 06:11:59;;;;;;;8.57;4.35;;;;;;;-3.37;85.25;100614.69;5116939;28;20510;-64
2021/12/26 06:14:25;;;;;;;7.32;4.35;;;;;;;-3.46;84.64;100587.88;5117392;28;20331;-67
2021/12/26 06:16:50;;;;;;;8.05;4.68;;;;;;;-3.40;84.96;100601.75;5117421;28;20445;-66
2021/12/26 06:19:16;;;;;;;7.53;4.30;;;;;;;-3.41;85.30;100610.25;5117241;28;20114;-64
2021/12/26 06:21:41;;;;;;;7.32;4.47;;;;;;;-3.43;85.12;100605.88;5117406;28;20099;-64
2021/12/26 06:24:08;;;;;;;7.40;4.15;;;;;;;-3.45;84.62;100607.50;5117022;28;20112;-65
2021/12/26 06:26:34;;;;;;;10.85;4.85;;;;;;;-3.44;85.54;100612.69;5117092;28;20063;-65
2021/12/26 06:28:59;;;;;;;8.98;4.95;;;;;;;-3.45;85.40;100610.94;5117061;28;20432;-64
2021/12/26 06:31:24;;;;;;;8.48;4.55;;;;;;;-3.43;85.43;100616.13;5117327;28;20036;-65
2021/12/26 06:33:50;;;;;;;7.75;4.38;;;;;;;-3.41;85.33;100615.38;5117011;28;20115;-64
2021/12/26 06:36:16;;;;;;;7.53;4.53;;;;;;;-3.39;86.78;100618.84;5116702;28;20023;-67
2021/12/26 06:38:43;;;;;;;8.60;4.70;;;;;;;-3.40;84.51;100622.22;5116926;28;20043;-64
2021/12/26 06:41:09;;;;;;;6.82;4.32;;;;;;;-3.46;85.25;100616.88;5116690;28;20089;-66
2021/12/26 06:43:35;;;;;;;7.80;4.70;;;;;;;-3.48;84.79;100620.19;5116754;28;20031;-65
2021/12/26 06:46:01;;;;;;;7.68;4.43;;;;;;;-3.49;85.57;100621.88;5116852;28;20115;-68
2021/12/26 06:48:26;;;;;;;6.70;4.78;;;;;;;-3.56;85.58;100610.53;5116983;28;20404;-67
2021/12/26 06:50:52;;;;;;;8.98;4.88;;;;;;;-3.47;85.91;100622.81;5116624;28;20027;-65
2021/12/26 06:53:18;;;;;;;8.10;4.60;;;;;;;-3.50;85.08;100620.13;5116411;28;20023;-67
2021/12/26 06:55:44;;;;;;;7.50;4.57;;;;;;;-3.47;86.01;100620.25;5107556;28;20028;-67
2021/12/26 06:58:10;;;;;;;7.95;4.63;;;;;;;-3.48;85.73;100620.19;5106210;28;20027;-66
2021/12/26 07:00:36;;;;;;;10.32;5.22;;;;;;;-3.50;85.70;100625.25;5099067;28;20456;-65
2021/12/26 07:03:02;;;;;;;7.72;4.47;;;;;;;-3.55;86.24;100613.97;5107334;28;20024;-64
2021/12/26 07:05:27;;;;;;;9.43;5.03;;;;;;;-3.51;85.80;100611.59;5099395;28;20028;-64
2021/12/26 07:07:53;;;;;;;9.30;4.80;;;;;;;-3.57;86.27;100600.25;5109379;28;20096;-68
2021/12/26 07:10:20;;;;;;;7.38;5.10;;;;;;;-3.53;86.13;100612.34;5105672;28;20024;-67
2021/12/26 07:12:45;;;;;;;7.47;4.90;;;;;;;-3.53;85.66;100609.78;5101873;28;20088;-65
2021/12/26 07:15:11;;;;;;;9.73;5.20;;;;;;;-3.49;85.95;100611.66;5112308;28;20110;-65
2021/12/26 07:17:37;;;;;;;9.23;4.90;;;;;;;-3.47;85.61;100609.16;5099405;28;20031;-67
2021/12/26 07:20:04;;;;;;;8.40;4.80;;;;;;;-3.43;85.76;100613.56;5107948;28;20045;-66
2021/12/26 07:22:29;;;;;;;10.43;5.22;;;;;;;-3.44;85.77;100615.25;5107126;28;20031;-66
2021/12/26 07:24:55;;;;;;;8.65;5.13;;;;;;;-3.49;85.51;100609.09;5100087;28;20123;-66
2021/12/26 07:27:20;;;;;;;8.40;5.00;;;;;;;-3.41;86.31;100615.38;5112106;28;20072;-64
2021/12/26 07:29:45;;;;;;;9.75;5.22;;;;;;;-3.38;86.69;100612.94;5100673;28;20063;-65
2021/12/26 07:32:11;;;;;;;9.25;4.97;;;;;;;-3.33;86.32;100613.13;5106591;28;20040;-66
2021/12/26 07:34:37;;;;;;;7.45;4.75;;;;;;;-3.35;86.21;100609.63;5107994;28;20341;-65
2021/12/26 07:37:03;;;;;;;9.15;5.65;;;;;;;-3.40;86.37;100601.75;5099278;28;20036;-65
2021/12/26 07:39:29;;;;;;;9.90;5.60;;;;;;;-3.37;86.32;100601.00;5112026;28;20111;-67
2021/12/26 07:41:55;;;;;;;7.63;5.28;;;;;;;-3.35;85.94;100605.38;5101949;28;20106;-65
2021/12/26 07:44:20;;;;;;;9.82;5.55;;;;;;;-3.38;85.91;100604.38;5105175;28;20430;-66
2021/12/26 07:46:46;;;;;;;10.48;5.47;;;;;;;-3.38;86.70;100607.81;5104395;28;20114;-65
2021/12/26 07:49:11;;;;;;;9.85;5.30;;;;;;;-3.35;86.64;100615.63;5100072;28;20124;-66
2021/12/26 07:51:36;;;;;;;9.52;5.60;;;;;;;-3.37;86.71;100601.88;5109439;28;20039;-67
2021/12/26 07:54:02;;;;;;;8.77;5.25;;;;;;;-3.32;86.83;100613.19;5103958;28;20091;-64
2021/12/26 07:56:29;;;;;;;9.52;5.75;;;;;;;-3.35;86.49;100604.50;5102083;28;20043;-65
2021/12/26 07:58:55;;;;;;;8.63;5.57;;;;;;;-3.37;86.53;100612.13;5111536;28;20036;-66
2021/12/26 08:01:20;;;;;;;8.88;5.65;;;;;;;-3.32;87.56;100617.41;5098471;28;20455;-66
2021/12/26 08:03:46;;;;;;;9.68;5.30;;;;;;;-3.31;87.07;100617.47;5108072;28;20043;-66
2021/12/26 08:06:16;;;;;;;10.35;5.78;;;;;;;-3.28;87.38;100616.69;5105694;28;20043;-64
2021/12/26 08:08:42;;;;;;;9.43;5.93;;;;;;;-3.25;88.17;100622.81;5099928;28;20043;-66
2021/12/26 08:11:08;;;;;;;10.10;6.03;;;;;;;-3.20;87.66;100625.56;5111081;28;20024;-66
2021/12/26 08:13:33;;;;;;;9.65;5.60;;;;;;;-3.18;87.09;100619.69;5099804;28;20343;-65
2021/12/26 08:15:59;;;;;;;11.77;5.93;;;;;;;-3.17;87.51;100621.44;5106385;28;20455;-65
2021/12/26 08:18:24;;;;;;;10.23;6.35;;;;;;;-3.06;88.09;100618.38;5107312;28;20120;-65
2021/12/26 08:20:49;;;;;;;8.55;5.38;;;;;;;-3.01;87.32;100622.00;5098924;28;20069;-66
2021/12/26 08:23:15;;;;;;;11.98;6.32;;;;;;;-2.91;87.11;100621.50;5111160;28;20423;-66
2021/12/26 08:25:40;;;;;;;11.90;6.50;;;;;;;-2.82;87.11;100616.75;5100654;28;20130;-64
2021/12/26 08:28:05;;;;;;;10.88;6.03;;;;;;;-2.67;86.95;100619.84;5104718;28;20107;-64
2021/12/26 08:30:30;;;;;;;9.60;6.13;;;;;;;-2.56;86.29;100622.78;5108052;28;20031;-66
2021/12/26 08:32:59;;;;;;;11.63;5.65;;;;;;;-2.48;86.20;100627.38;5098103;28;20024;-64
2021/12/26 08:35:25;;;;;;;9.70;5.80;;;;;;;-2.42;86.39;100610.50;5110752;28;20036;-64
2021/12/26 08:37:51;;;;;;;10.88;6.07;;;;;;;-2.33;85.44;100603.97;5102013;28;20031;-66
2021/12/26 08:40:16;;;;;;;13.07;6.18;;;;;;;-2.27;85.72;100605.88;5085472;28;20070;-65
2021/12/26 08:42:42;;;;;;;11.23;6.40;;;;;;;-2.11;85.43;100613.28;5109309;28;20055;-65
2021/12/26 08:45:08;;;;;;;11.57;6.05;;;;;;;-2.10;84.69;100594.50;5097670;28;20106;-67
2021/12/26 08:47:33;;;;;;;10.90;6.88;;;;;;;-2.01;85.06;100599.94;5109535;28;20040;-65
2021/12/26 08:49:58;;;;;;;12.38;6.40;;;;;;;-1.93;84.73;100607.88;5102842;28;20400;-67
2021/12/26 08:52:24;;;;;;;10.45;5.93;;;;;;;-1.90;85.23;100595.13;5101954;28;20205;-66
2021/12/26 08:54:49;;;;;;;11.38;6.32;;;;;;;-1.81;84.85;100609.16;5110199;28;20042;-67
2021/12/26 08:57:15;;;;;;;12.15;6.50;;;;;;;-1.74;84.77;100599.09;5097406;28;21338;-64
2021/12/26 08:59:41;;;;;;;11.98;6.80;;;;;;;-1.70;83.99;100598.34;5108342;28;20081;-63
2021/12/26 09:02:07;;;;;;;13.80;6.40;;;;;;;-1.71;84.43;100596.59;5104167;28;20099;-68
2021/12/26 09:04:33;;;;;;;13.02;6.25;;;;;;;-1.64;84.88;100603.69;5100997;28;20032;-67
2021/12/26 09:06:58;;;;;;;12.32;6.10;;;;;;;-1.61;84.89;100598.66;5111166;28;20020;-65
2021/12/26 09:09:25;;;;;;;12.07;6.22;;;;;;;-1.58;85.01;100596.19;5095513;28;20035;-64
2021/12/26 09:11:51;;;;;;;13.20;6.35;;;;;;;-1.53;84.88;100587.78;5091108;28;20075;-66
2021/12/26 09:14:17;;;;;;;13.68;6.20;;;;;;;-1.44;84.65;100592.34;5094295;28;20454;-58
2021/12/26 09:16:42;;;;;;;11.57;7.10;;;;;;;-1.39;84.63;100587.38;5094756;28;20032;-63
2021/12/26 09:19:07;;;;;;;9.35;6.57;;;;;;;-1.53;85.14;100566.41;5094775;28;20032;-61
2021/12/26 09:21:33;;;;;;;11.20;5.97;;;;;;;-1.30;84.72;100598.78;5098754;28;20520;-62
2021/12/26 09:23:59;;;;;;;12.13;6.38;;;;;;;-1.29;84.75;100591.94;5097938;28;20036;-52
2021/12/26 09:26:24;;;;;;;11.57;6.47;;;;;;;-1.21;84.43;100595.63;5097826;28;20047;-61
2021/12/26 09:28:50;;;;;;;11.77;6.53;;;;;;;-1.11;84.33;100606.19;5097608;28;20359;-69
2021/12/26 09:31:16;;;;;;;12.35;6.80;;;;;;;-1.08;83.92;100596.03;5104032;28;20040;-65
2021/12/26 09:33:41;;;;;;;13.93;6.97;;;;;;;-1.03;83.98;100601.25;5117924;28;20068;-63
2021/12/26 09:36:07;;;;;;;10.27;6.72;;;;;;;-0.97;83.85;100605.72;5118034;28;20333;-65
2021/12/26 09:38:32;;;;;;;12.68;6.63;;;;;;;-0.99;83.37;100607.38;5118038;28;20436;-64
2021/12/26 09:40:59;;;;;;;11.65;6.55;;;;;;;-0.96;83.72;100599.75;5118071;28;20039;-66
2021/12/26 09:43:25;;;;;;;12.80;6.70;;;;;;;-0.95;84.32;100596.38;5117929;28;20035;-66
2021/12/26 09:45:51;;;;;;;10.45;6.80;;;;;;;-0.93;83.85;100600.72;5117837;28;20461;-65
2021/12/26 09:48:17;;;;;;;12.35;7.20;;;;;;;-0.91;83.69;100603.34;5118007;28;20028;-66
2021/12/26 09:50:42;;;;;;;14.18;7.15;;;;;;;-0.87;84.25;100598.34;5117409;28;20400;-65
2021/12/26 09:53:08;;;;;;;13.45;6.50;;;;;;;-0.80;84.15;100601.94;5115778;28;20435;-65
2021/12/26 09:55:33;;;;;;;15.38;7.45;;;;;;;-0.75;85.12;100600.38;5116015;28;20042;-71
2021/12/26 09:57:59;;;;;;;10.88;6.35;;;;;;;-0.63;83.79;100598.13;5117855;28;20042;-68
2021/12/26 10:00:29;;;;;;;13.32;7.28;;;;;;;-0.62;83.78;100593.88;5117084;28;20363;-64
2021/12/26 10:03:12;;;;;;;11.82;7.45;;;;;;;-0.53;84.04;100589.88;5117705;28;20442;-64
2021/12/26 10:06:02;;;;;;;13.35;7.45;;;;;;;-0.48;84.72;100593.41;5117631;28;20023;-65
2021/12/26 10:08:29;;;;;;;10.80;6.90;;;;;;;-0.44;83.25;100589.22;5117663;28;20468;-65
2021/12/26 10:11:12;;;;;;;14.40;7.63;;;;;;;-0.43;84.08;100571.28;5117712;28;20031;-64
2021/12/26 10:13:50;;;;;;;14.30;7.63;;;;;;;-0.41;84.55;100569.63;5117219;28;20035;-64
2021/12/26 10:16:19;;;;;;;13.75;7.43;;;;;;;-0.42;83.92;100559.31;5117224;28;20147;-64
2021/12/26 10:18:46;;;;;;;13.65;7.88;;;;;;;-0.37;83.69;100568.00;5117084;28;20023;-66
2021/12/26 10:21:22;;;;;;;13.13;7.65;;;;;;;-0.26;83.77;100568.28;5117530;28;20039;-65
2021/12/26 10:23:48;;;;;;;13.60;7.78;;;;;;;-0.35;83.90;100553.50;5117249;28;20452;-65
2021/12/26 10:26:22;;;;;;;14.55;7.53;;;;;;;-0.30;84.19;100544.19;5117008;28;20106;-66
2021/12/26 10:29:11;;;;;;;15.18;8.07;;;;;;;-0.24;84.76;100564.03;5116994;28;20110;-66
2021/12/26 10:31:41;;;;;;;17.83;8.50;;;;;;;-0.26;84.20;100553.72;5117102;28;20015;-65
2021/12/26 10:34:14;;;;;;;14.55;8.18;;;;;;;-0.25;84.49;100547.75;5117198;28;20027;-64
2021/12/26 10:36:46;;;;;;;;;;;;;;;-0.08;84.59;100551.59;5117453;28;20031;-66
2021/12/26 10:39:17;;;;;;;13.55;7.35;;;;;;;-0.11;83.90;100540.38;5116857;28;19911;-66
2021/12/26 10:41:47;;;;;;;13.23;8.02;;;;;;;-0.12;83.61;100547.22;5116581;28;20085;-65
2021/12/26 10:44:21;;;;;;;15.85;7.95;;;;;;;-0.09;83.74;100539.59;5116430;28;20104;-67
2021/12/26 10:46:49;;;;;;;14.15;7.90;;;;;;;-0.09;84.72;100536.13;5116975;28;20035;-64
2021/12/26 10:49:28;;;;;;;14.70;8.57;;;;;;;-0.02;84.12;100535.47;5116532;28;20039;-65
2021/12/26 10:51:54;;;;;;;15.35;8.02;;;;;;;-0.07;84.11;100531.91;5116263;28;20438;-64
2021/12/26 10:54:25;;;;;;;14.52;8.77;;;;;;;-0.05;84.66;100527.66;5116782;28;20027;-66
2021/12/26 10:57:28;;;;;;;13.75;8.07;;;;;;;0.03;85.25;100521.00;5116583;28;20038;-67
2021/12/26 11:00:28;;;;;;;19.52;9.15;;;;;;;0.10;84.97;100530.59;5116512;28;20027;-66
2021/12/26 11:03:04;;;;;;;13.20;8.60;;;;;;;0.14;84.59;100537.56;5116602;28;20080;-66
2021/12/26 11:05:42;;;;;;;14.40;8.77;;;;;;;0.14;84.99;100513.53;5116750;28;20028;-65
2021/12/26 11:08:13;;;;;;;16.52;9.15;;;;;;;0.08;84.67;100501.41;5116403;28;20396;-66
2021/12/26 11:10:47;;;;;;;14.05;8.80;;;;;;;0.20;85.23;100514.53;5116307;28;20036;-65
2021/12/26 11:13:20;;;;;;;14.90;8.55;;;;;;;0.24;84.32;100518.91;5116234;28;20138;-65
2021/12/26 11:15:46;;;;;;;17.35;8.82;;;;;;;0.29;84.98;100519.91;5116174;28;20047;-65
2021/12/26 11:18:16;;;;;;;15.25;8.15;;;;;;;0.31;85.10;100517.38;5116221;28;20032;-65
2021/12/26 11:20:50;;;;;;;16.15;9.45;;;;;;;0.31;84.95;100519.94;5116244;28;20032;-66
2021/12/26 11:23:19;;;;;;;17.92;9.30;;;;;;;0.35;85.23;100514.00;5116162;28;20365;-67
2021/12/26 11:25:49;;;;;;;15.63;9.10;;;;;;;0.44;85.34;100506.50;5115966;28;20059;-67